Time;durP1;ratioP1;P1;durP2;ratioP2;P2;SDS_P1;SDS_P2;PMS_P1;PMS_P2;Temp;Humidity;BMP_temperature;BMP_pressure;BME280_temperature;BME280_humidity;BME280_pressure;Samples;Min_cycle;Max_cycle;Signal;HPM_P1;HPM_P2
2023/02/26 00:01:22;;;;;;;9.35;3.30;;;;;;;3.59;49.09;101762.91;4946189;28;122539;-63
2023/02/26 00:03:51;;;;;;;10.82;3.10;;;;;;;3.57;49.06;101775.13;4951495;28;122776;-63
2023/02/26 00:06:19;;;;;;;10.85;3.03;;;;;;;3.53;49.02;101773.41;4950222;28;113844;-63
2023/02/26 00:08:46;;;;;;;6.72;2.55;;;;;;;3.50;49.17;101778.63;4957736;28;114567;-63
2023/02/26 00:11:13;;;;;;;9.90;2.72;;;;;;;3.44;49.43;101774.25;4958664;28;124676;-63
2023/02/26 00:13:42;;;;;;;6.93;2.25;;;;;;;3.41;49.35;101783.84;4941500;28;123877;-64
2023/02/26 00:16:21;;;;;;;7.57;2.30;;;;;;;3.35;49.13;101783.88;4948335;28;114314;-64
2023/02/26 00:18:48;;;;;;;11.35;2.25;;;;;;;3.32;49.41;101779.53;4949685;28;113727;-64
2023/02/26 00:21:17;;;;;;;9.45;2.38;;;;;;;3.30;49.46;101782.13;4944633;28;123305;-65
2023/02/26 00:23:45;;;;;;;8.23;2.42;;;;;;;3.29;49.36;101780.38;4960361;28;123731;-63
2023/02/26 00:26:12;;;;;;;5.57;2.17;;;;;;;3.29;49.50;101790.84;4956230;28;113026;-63
2023/02/26 00:28:40;;;;;;;6.30;2.38;;;;;;;3.29;49.74;101795.22;4966091;28;113962;-67
2023/02/26 00:31:08;;;;;;;5.22;1.88;;;;;;;3.29;49.61;101790.84;4963669;28;124305;-63
2023/02/26 00:33:35;;;;;;;6.18;2.10;;;;;;;3.31;49.75;101799.59;4946556;28;123117;-62
2023/02/26 00:36:17;;;;;;;7.63;2.10;;;;;;;3.31;49.85;101804.84;4945008;28;114350;-63
2023/02/26 00:38:56;;;;;;;5.03;1.67;;;;;;;3.35;49.89;101805.69;4958780;28;113817;-63
2023/02/26 00:41:24;;;;;;;7.47;2.00;;;;;;;3.35;49.94;101804.81;4956271;28;124324;-63
2023/02/26 00:43:51;;;;;;;8.00;1.63;;;;;;;3.35;49.94;101815.28;4961383;28;124018;-64
2023/02/26 00:46:44;;;;;;;3.40;1.65;;;;;;;3.30;49.81;101813.53;4956888;28;116140;-64
2023/02/26 00:49:36;;;;;;;5.57;2.00;;;;;;;3.30;49.84;101824.03;4960044;28;114929;-63
2023/02/26 00:52:09;;;;;;;8.68;1.80;;;;;;;3.28;49.80;101827.53;4964131;28;124167;-63
2023/02/26 00:54:36;;;;;;;4.80;1.63;;;;;;;3.27;50.13;101829.25;4946665;28;123908;-63
2023/02/26 00:57:04;;;;;;;5.45;1.70;;;;;;;3.28;50.02;101831.00;4940050;28;113070;-63
2023/02/26 00:59:32;;;;;;;4.28;1.88;;;;;;;3.29;50.06;101835.34;4956410;28;113044;-63
2023/02/26 01:02:00;;;;;;;5.43;1.75;;;;;;;3.31;50.42;101836.25;4950695;28;123247;-63
2023/02/26 01:04:28;;;;;;;10.20;1.70;;;;;;;3.35;50.50;101831.00;4947132;28;122756;-63
2023/02/26 01:06:56;;;;;;;3.95;1.42;;;;;;;3.38;50.34;101831.00;4955609;28;114694;-64
2023/02/26 01:09:26;;;;;;;7.30;1.42;;;;;;;3.41;50.53;101831.00;4963208;28;114344;-64
2023/02/26 01:11:56;;;;;;;7.35;1.63;;;;;;;3.43;50.41;101829.28;4954638;28;124787;-64
2023/02/26 01:14:24;;;;;;;6.50;1.55;;;;;;;3.45;50.60;101832.75;4952345;28;123012;-64
2023/02/26 01:17:13;;;;;;;3.25;1.45;;;;;;;3.46;50.37;101829.25;4957263;28;113069;-65
2023/02/26 01:19:57;;;;;;;5.47;1.60;;;;;;;3.47;50.52;101826.66;4954026;28;114458;-64
2023/02/26 01:22:49;;;;;;;7.93;1.50;;;;;;;3.48;50.30;101823.16;4949277;28;123373;-64
2023/02/26 01:25:49;;;;;;;8.20;1.90;;;;;;;3.48;50.29;101827.50;4941429;28;121979;-65
2023/02/26 01:28:17;;;;;;;4.88;1.50;;;;;;;3.49;50.42;101835.38;4963255;28;114276;-64
2023/02/26 01:30:46;;;;;;;7.18;1.85;;;;;;;3.50;50.64;101831.00;4966293;28;112829;-64
2023/02/26 01:33:24;;;;;;;5.40;1.60;;;;;;;3.49;50.79;101840.63;4947696;28;123127;-64
2023/02/26 01:36:01;;;;;;;7.10;1.98;;;;;;;3.50;50.83;101849.34;4954965;28;123477;-64
2023/02/26 01:38:48;;;;;;;3.58;1.42;;;;;;;3.50;50.60;101849.34;4957335;28;114376;-64
2023/02/26 01:41:37;;;;;;;4.57;1.60;;;;;;;3.50;50.60;101851.94;4947629;28;113808;-64
2023/02/26 01:44:34;;;;;;;8.65;1.70;;;;;;;3.49;50.86;101850.22;4951262;28;123624;-64
2023/02/26 01:47:22;;;;;;;5.05;1.40;;;;;;;3.48;50.94;101853.69;4965329;28;123995;-64
2023/02/26 01:49:50;;;;;;;5.85;1.83;;;;;;;3.48;50.71;101859.84;4960497;28;114442;-65
2023/02/26 01:52:48;;;;;;;7.78;1.55;;;;;;;3.48;50.71;101864.19;4971336;28;114294;-64
2023/02/26 01:55:25;;;;;;;5.05;1.50;;;;;;;3.46;50.81;101860.69;4959997;28;124002;-63
2023/02/26 01:57:57;;;;;;;4.57;1.40;;;;;;;3.46;51.21;101860.69;4952525;28;124155;-64
2023/02/26 02:00:25;;;;;;;6.88;1.60;;;;;;;3.48;50.91;101869.41;4940211;28;113429;-64
2023/02/26 02:02:53;;;;;;;4.55;1.33;;;;;;;3.47;51.03;101872.91;4953032;28;113246;-64
2023/02/26 02:05:27;;;;;;;5.07;1.50;;;;;;;3.47;50.99;101868.53;4958849;28;123682;-64
2023/02/26 02:07:55;;;;;;;6.05;1.50;;;;;;;3.49;51.24;101876.41;4955676;28;123982;-64
2023/02/26 02:10:24;;;;;;;3.33;1.50;;;;;;;3.49;50.95;101876.41;4966481;28;114583;-64
2023/02/26 02:13:18;;;;;;;3.65;1.40;;;;;;;3.48;51.25;101883.41;4954715;28;114865;-65
2023/02/26 02:16:06;;;;;;;7.65;1.77;;;;;;;3.48;51.03;101885.13;4964237;28;124699;-64
2023/02/26 02:18:46;;;;;;;7.43;1.60;;;;;;;3.48;51.11;101885.13;4965367;28;124490;-64
2023/02/26 02:21:25;;;;;;;3.97;1.38;;;;;;;3.49;50.99;101892.13;4964081;28;114229;-64
2023/02/26 02:23:58;;;;;;;3.38;1.33;;;;;;;3.48;51.41;101890.38;4948275;28;112997;-64
2023/02/26 02:27:28;;;;;;;3.33;1.48;;;;;;;3.48;51.13;101892.97;4944492;28;126871;-65
2023/02/26 02:30:09;;;;;;;4.38;1.30;;;;;;;3.47;51.12;101893.88;4893829;28;124334;-65
2023/02/26 02:32:50;;;;;;;5.63;1.23;;;;;;;3.46;50.97;101897.34;4917628;28;115491;-64
2023/02/26 02:35:28;;;;;;;5.45;1.70;;;;;;;3.46;51.08;101902.59;4948051;28;114713;-65
2023/02/26 02:38:14;;;;;;;4.25;1.08;;;;;;;3.46;51.08;101907.81;4956224;28;123037;-65
2023/02/26 02:40:43;;;;;;;;;;;;;;;3.45;51.02;101906.09;4948286;28;123427;-65
2023/02/26 02:43:16;;;;;;;2.97;1.27;;;;;;;3.44;51.14;101912.19;4969251;28;114721;-64
2023/02/26 02:45:59;;;;;;;9.98;1.77;;;;;;;3.42;51.33;101913.94;4964027;28;114630;-64
2023/02/26 02:48:37;;;;;;;6.85;1.30;;;;;;;3.42;51.43;101921.78;4966962;28;122962;-64
2023/02/26 02:51:13;;;;;;;5.70;1.40;;;;;;;3.41;51.47;101920.91;4965478;28;123767;-64
2023/02/26 02:54:06;;;;;;;6.63;1.38;;;;;;;3.41;51.37;101915.69;4939151;28;114239;-65
2023/02/26 02:56:42;;;;;;;6.93;1.10;;;;;;;3.44;51.31;101920.03;4961251;28;114339;-64
2023/02/26 02:59:16;;;;;;;3.70;0.93;;;;;;;3.47;51.29;101935.78;4931810;28;123806;-64
2023/02/26 03:01:46;;;;;;;3.38;1.08;;;;;;;3.49;51.52;101928.78;4949345;28;123260;-66
2023/02/26 03:04:15;;;;;;;3.38;1.00;;;;;;;3.51;51.33;101937.53;4938344;28;113306;-65
2023/02/26 03:06:45;;;;;;;4.93;1.30;;;;;;;3.53;51.35;101929.66;4960203;28;114196;-64
2023/02/26 03:09:12;;;;;;;4.93;1.30;;;;;;;3.54;51.24;101940.13;4950901;28;123089;-64
2023/02/26 03:11:41;;;;;;;6.07;1.00;;;;;;;3.56;51.40;101941.03;4960560;28;124037;-64
2023/02/26 03:14:11;;;;;;;3.38;0.95;;;;;;;3.57;51.53;101944.50;4966402;28;114368;-64
2023/02/26 03:17:28;;;;;;;4.32;1.13;;;;;;;3.58;51.18;101955.00;4950208;28;113229;-65
2023/02/26 03:20:04;;;;;;;5.75;1.05;;;;;;;3.58;51.08;101957.63;4890792;28;123159;-64
2023/02/26 03:22:51;;;;;;;5.22;0.98;;;;;;;3.57;51.24;101953.25;4894628;28;123228;-65
2023/02/26 03:25:46;;;;;;;2.40;0.90;;;;;;;3.59;51.47;101967.22;4927722;28;114721;-65
2023/02/26 03:28:24;;;;;;;1.80;0.90;;;;;;;3.60;51.43;101979.44;4943756;28;113960;-65
2023/02/26 03:30:58;;;;;;;2.30;1.10;;;;;;;3.59;51.13;101977.69;4947750;28;123431;-65
2023/02/26 03:33:41;;;;;;;4.25;1.17;;;;;;;3.58;51.29;101975.97;4963377;28;123903;-65
2023/02/26 03:36:27;;;;;;;5.25;1.20;;;;;;;3.56;51.13;101977.69;4966634;28;113422;-65
2023/02/26 03:39:19;;;;;;;3.50;1.13;;;;;;;3.56;50.92;101988.19;4932024;28;113497;-65
2023/02/26 03:41:55;;;;;;;5.33;1.13;;;;;;;3.53;50.86;101988.16;4953728;28;123256;-65
2023/02/26 03:44:29;;;;;;;5.38;0.90;;;;;;;3.51;51.21;101984.66;4960316;28;124306;-65
2023/02/26 03:47:01;;;;;;;5.95;1.40;;;;;;;3.49;51.14;101991.66;4955338;28;113524;-65
2023/02/26 03:49:35;;;;;;;3.33;1.00;;;;;;;3.46;51.15;101989.00;4964668;28;113032;-64
2023/02/26 03:52:03;;;;;;;4.07;1.00;;;;;;;3.46;50.92;101992.50;4953413;28;123367;-65
2023/02/26 03:54:57;;;;;;;3.83;0.85;;;;;;;3.45;51.00;101989.91;4950911;28;123376;-67
2023/02/26 03:57:51;;;;;;;4.93;1.35;;;;;;;3.41;51.20;101982.88;4949933;28;114067;-65
2023/02/26 04:00:33;;;;;;;3.72;1.00;;;;;;;3.39;50.94;101990.75;4957987;28;114812;-70
2023/02/26 04:03:08;;;;;;;3.38;1.27;;;;;;;3.37;51.12;101991.59;4937495;28;123182;-65
2023/02/26 04:05:41;;;;;;;4.50;1.07;;;;;;;3.36;51.22;101989.88;4961627;28;123561;-65
2023/02/26 04:08:08;;;;;;;7.05;1.35;;;;;;;3.33;51.14;101997.69;4963478;28;114617;-65
2023/02/26 04:10:40;;;;;;;7.10;1.10;;;;;;;3.31;51.00;101998.59;4943639;28;113328;-68
2023/02/26 04:13:08;;;;;;;3.55;1.20;;;;;;;3.28;51.11;101998.56;4942376;28;123236;-64
2023/02/26 04:15:36;;;;;;;7.28;1.38;;;;;;;3.28;51.05;102009.03;4949174;28;122990;-65
2023/02/26 04:18:04;;;;;;;3.05;0.77;;;;;;;3.27;51.05;102017.75;4952006;28;115043;-65
2023/02/26 04:20:31;;;;;;;3.30;1.08;;;;;;;3.26;51.05;102010.78;4953520;28;114128;-65
2023/02/26 04:22:59;;;;;;;2.80;1.17;;;;;;;3.24;51.31;102012.50;4952142;28;123616;-65
2023/02/26 04:25:26;;;;;;;4.03;1.00;;;;;;;3.23;51.30;102023.84;4947350;28;123382;-65
2023/02/26 04:27:55;;;;;;;2.78;0.90;;;;;;;3.19;51.12;102021.22;4966541;28;114178;-65
2023/02/26 04:30:22;;;;;;;3.20;1.13;;;;;;;3.17;51.05;102029.06;4963477;28;113812;-65
2023/02/26 04:32:49;;;;;;;2.58;1.00;;;;;;;3.16;51.28;102029.03;4948703;28;123817;-65
2023/02/26 04:35:17;;;;;;;6.93;1.27;;;;;;;3.14;51.16;102029.03;4948570;28;124712;-65
2023/02/26 04:37:44;;;;;;;4.18;1.20;;;;;;;3.12;51.05;102038.63;4961306;28;114700;-65
2023/02/26 04:40:12;;;;;;;4.53;1.10;;;;;;;3.12;51.42;102043.84;4960823;28;113122;-65
2023/02/26 04:42:39;;;;;;;3.25;0.95;;;;;;;3.10;51.07;102041.22;4943599;28;123734;-65
2023/02/26 04:45:07;;;;;;;5.13;1.40;;;;;;;3.06;51.35;102044.69;4964291;28;122969;-65
2023/02/26 04:47:37;;;;;;;4.18;1.15;;;;;;;3.05;51.42;102057.75;4967670;28;114944;-65
2023/02/26 04:50:05;;;;;;;5.15;1.38;;;;;;;3.00;51.28;102059.50;4966755;28;114029;-65
2023/02/26 04:52:32;;;;;;;5.97;1.30;;;;;;;2.97;51.25;102059.47;4946715;28;123282;-67
2023/02/26 04:55:00;;;;;;;3.83;1.40;;;;;;;2.92;51.18;102062.94;4954122;28;123070;-65
2023/02/26 04:57:28;;;;;;;2.83;1.05;;;;;;;2.90;51.16;102059.44;4966695;28;114427;-65
2023/02/26 04:59:55;;;;;;;8.55;1.45;;;;;;;2.87;51.43;102069.88;4951240;28;113178;-65
2023/02/26 05:02:27;;;;;;;5.68;1.25;;;;;;;2.85;51.45;102060.28;4935355;28;123265;-65
2023/02/26 05:04:54;;;;;;;3.53;0.90;;;;;;;2.84;51.42;102074.22;4949990;28;122983;-66
2023/02/26 05:07:22;;;;;;;4.80;1.63;;;;;;;2.81;51.32;102067.22;4949351;28;114905;-66
2023/02/26 05:09:49;;;;;;;3.10;1.15;;;;;;;2.80;51.60;102070.69;4958171;28;116364;-65
2023/02/26 05:12:17;;;;;;;2.70;1.30;;;;;;;2.79;51.38;102079.44;4951947;28;123462;-65
2023/02/26 05:14:44;;;;;;;3.60;1.20;;;;;;;2.79;51.41;102075.91;4963314;28;123217;-65
2023/02/26 05:17:12;;;;;;;4.35;1.10;;;;;;;2.79;51.59;102087.28;4946932;28;113250;-65
2023/02/26 05:19:39;;;;;;;5.55;1.20;;;;;;;2.79;51.46;102084.66;4951517;28;113866;-66
2023/02/26 05:22:07;;;;;;;6.43;0.95;;;;;;;2.78;51.47;102088.13;4966229;28;123207;-65
2023/02/26 05:24:34;;;;;;;6.55;2.00;;;;;;;2.78;51.66;102093.34;4947148;28;123442;-65
2023/02/26 05:27:02;;;;;;;4.63;1.00;;;;;;;2.77;51.51;102094.25;4949438;28;113542;-66
2023/02/26 05:29:30;;;;;;;4.90;0.88;;;;;;;2.77;51.41;102094.25;4951030;28;113124;-65
2023/02/26 05:32:02;;;;;;;6.15;1.10;;;;;;;2.75;51.47;102095.97;4949832;28;123156;-65
2023/02/26 05:34:29;;;;;;;4.43;1.08;;;;;;;2.74;51.29;102099.44;4944842;28;124024;-68
2023/02/26 05:36:57;;;;;;;4.82;1.00;;;;;;;2.75;51.50;102105.53;4960726;28;114499;-67
2023/02/26 05:39:24;;;;;;;2.60;0.90;;;;;;;2.73;51.56;102100.28;4951140;28;112600;-66
2023/02/26 05:41:54;;;;;;;6.88;1.10;;;;;;;2.73;51.47;102108.13;4962908;28;124050;-66
2023/02/26 05:44:22;;;;;;;6.38;0.95;;;;;;;2.72;51.67;102106.41;4934002;28;122807;-66
2023/02/26 05:46:49;;;;;;;7.03;1.10;;;;;;;2.71;51.75;102109.88;4958842;28;114204;-65
2023/02/26 05:49:16;;;;;;;5.00;1.08;;;;;;;2.69;51.42;102107.25;4958577;28;113935;-66
2023/02/26 05:51:44;;;;;;;10.25;1.10;;;;;;;2.69;51.44;102124.69;4962733;28;124040;-67
2023/02/26 05:54:11;;;;;;;6.03;0.80;;;;;;;2.66;51.54;102117.69;4965897;28;123852;-66
2023/02/26 05:56:38;;;;;;;6.75;0.80;;;;;;;2.66;51.30;102116.81;4963520;28;115206;-65
2023/02/26 05:59:05;;;;;;;1.90;0.90;;;;;;;2.65;51.37;102125.50;4950681;28;114533;-65
2023/02/26 06:01:33;;;;;;;2.13;0.85;;;;;;;2.63;51.44;102127.25;4966138;28;124096;-66
2023/02/26 06:04:00;;;;;;;2.85;1.10;;;;;;;2.62;51.34;102133.31;4950991;28;122907;-65
2023/02/26 06:06:27;;;;;;;3.83;0.85;;;;;;;2.62;51.32;102135.94;4951760;28;114078;-67
2023/02/26 06:08:54;;;;;;;7.82;1.05;;;;;;;2.61;51.44;102139.44;4966051;28;115412;-67
2023/02/26 06:11:22;;;;;;;3.97;0.80;;;;;;;2.62;51.25;102141.16;4942994;28;124032;-67
2023/02/26 06:13:49;;;;;;;2.08;0.70;;;;;;;2.60;51.41;102142.91;4970732;28;124357;-67
2023/02/26 06:16:16;;;;;;;5.82;1.10;;;;;;;2.61;51.39;102149.91;4961687;28;114318;-66
2023/02/26 06:18:44;;;;;;;3.63;0.95;;;;;;;2.60;51.43;102154.25;4964878;28;114007;-67
2023/02/26 06:21:11;;;;;;;3.40;0.70;;;;;;;2.61;51.32;102155.13;4946959;28;123158;-64
2023/02/26 06:23:38;;;;;;;3.40;0.90;;;;;;;2.64;51.50;102160.41;4959290;28;124525;-66
2023/02/26 06:26:05;;;;;;;4.93;1.17;;;;;;;2.65;51.34;102162.13;4967742;28;113563;-66
2023/02/26 06:28:33;;;;;;;2.58;0.88;;;;;;;2.68;51.31;102167.41;4960665;28;113986;-65
2023/02/26 06:31:01;;;;;;;5.03;1.02;;;;;;;2.69;51.36;102163.91;4958230;28;124027;-65
2023/02/26 06:33:28;;;;;;;3.55;0.90;;;;;;;2.71;51.37;102167.41;4965866;28;123744;-65
2023/02/26 06:35:56;;;;;;;6.75;0.90;;;;;;;2.73;51.31;102178.75;4963884;28;114667;-65
2023/02/26 06:38:24;;;;;;;4.57;0.88;;;;;;;2.74;51.27;102183.16;4960559;28;114360;-65
2023/02/26 06:40:51;;;;;;;4.13;0.80;;;;;;;2.76;51.28;102191.88;4961457;28;124071;-65
2023/02/26 06:43:18;;;;;;;4.72;0.90;;;;;;;2.78;51.06;102195.38;4948673;28;123148;-66
2023/02/26 06:45:46;;;;;;;4.72;0.93;;;;;;;2.81;51.25;102190.19;4965273;28;114529;-66
2023/02/26 06:48:14;;;;;;;4.18;0.88;;;;;;;2.83;51.22;102198.94;4933471;28;113894;-66
2023/02/26 06:50:41;;;;;;;3.58;0.82;;;;;;;2.86;51.29;102212.06;4951388;28;124288;-67
2023/02/26 06:53:08;;;;;;;4.32;0.80;;;;;;;2.87;51.30;102216.41;4972033;28;123765;-67
2023/02/26 06:55:36;;;;;;;4.85;0.88;;;;;;;2.88;51.04;102212.94;4962569;28;114591;-67
2023/02/26 06:58:03;;;;;;;5.03;0.90;;;;;;;2.89;51.24;102230.38;4959654;28;113953;-67
2023/02/26 07:00:30;;;;;;;2.97;0.80;;;;;;;2.91;51.02;102233.00;4960556;28;122750;-67
2023/02/26 07:02:57;;;;;;;3.80;0.70;;;;;;;2.92;51.58;102238.25;4954747;28;124556;-66
2023/02/26 07:05:24;;;;;;;3.53;0.80;;;;;;;2.95;51.03;102240.03;4949727;28;114652;-68
2023/02/26 07:07:52;;;;;;;3.88;0.80;;;;;;;2.99;51.17;102240.94;4956530;28;113792;-68
2023/02/26 07:10:20;;;;;;;6.63;0.95;;;;;;;3.01;51.08;102244.44;4956415;28;124312;-69
2023/02/26 07:12:47;;;;;;;4.03;0.95;;;;;;;3.05;51.17;102243.59;4959920;28;124470;-68
2023/02/26 07:15:15;;;;;;;4.55;1.00;;;;;;;3.10;51.19;102254.97;4954963;28;114929;-69
2023/02/26 07:17:43;;;;;;;3.03;0.70;;;;;;;3.12;51.31;102258.50;4959569;28;114167;-68
2023/02/26 07:20:11;;;;;;;4.60;1.00;;;;;;;3.15;51.13;102263.75;4956322;28;124008;-67
2023/02/26 07:22:38;;;;;;;5.82;1.17;;;;;;;3.20;51.23;102272.53;4946387;28;123974;-68
2023/02/26 07:25:07;;;;;;;6.03;1.33;;;;;;;3.23;50.96;102277.78;4958049;28;114437;-68
2023/02/26 07:27:35;;;;;;;3.88;0.98;;;;;;;3.27;50.97;102282.19;4954856;28;112996;-68
2023/02/26 07:30:04;;;;;;;4.47;0.90;;;;;;;3.29;50.80;102280.44;4941186;28;123724;-68
2023/02/26 07:32:32;;;;;;;5.65;1.10;;;;;;;3.31;50.75;102286.59;4953170;28;123398;-69
2023/02/26 07:34:59;;;;;;;5.13;1.00;;;;;;;3.35;50.80;102297.09;4936375;28;115535;-69
2023/02/26 07:37:28;;;;;;;5.57;1.15;;;;;;;3.39;50.58;102293.63;4952885;28;114789;-70
2023/02/26 07:39:55;;;;;;;3.72;1.10;;;;;;;3.41;50.70;102291.88;4962764;28;123678;-69
2023/02/26 07:42:23;;;;;;;5.75;1.00;;;;;;;3.43;50.87;102301.53;4942673;28;123499;-70
2023/02/26 07:44:52;;;;;;;4.00;0.95;;;;;;;3.44;50.68;102305.00;4959040;28;113913;-69
2023/02/26 07:47:19;;;;;;;3.85;1.10;;;;;;;3.47;50.79;102305.06;4960351;28;114315;-69
2023/02/26 07:49:46;;;;;;;3.85;1.17;;;;;;;3.50;50.77;102310.28;4949008;28;123534;-70
2023/02/26 07:52:14;;;;;;;5.40;1.00;;;;;;;3.53;50.69;102307.72;4951104;28;124253;-70
2023/02/26 07:54:41;;;;;;;4.72;0.93;;;;;;;3.55;50.66;102311.22;4970457;28;114421;-69
2023/02/26 07:57:08;;;;;;;4.75;1.00;;;;;;;3.58;50.53;102311.25;4965443;28;113957;-70
2023/02/26 07:59:36;;;;;;;6.28;1.00;;;;;;;3.60;50.69;102319.09;4957672;28;124196;-69
2023/02/26 08:02:03;;;;;;;5.05;1.20;;;;;;;3.61;50.87;102321.72;4963750;28;124230;-69
2023/02/26 08:04:31;;;;;;;3.65;1.30;;;;;;;3.64;50.85;102327.00;4956439;28;114373;-70
2023/02/26 08:07:00;;;;;;;9.55;1.40;;;;;;;3.66;50.82;102325.28;4964808;28;113797;-69
2023/02/26 08:09:27;;;;;;;4.93;1.05;;;;;;;3.69;50.60;102320.06;4967090;28;124550;-69
2023/02/26 08:11:55;;;;;;;4.35;1.40;;;;;;;3.72;50.69;102324.44;4961479;28;124001;-69
2023/02/26 08:14:22;;;;;;;5.80;1.00;;;;;;;3.76;50.56;102330.59;4963063;28;114121;-69
2023/02/26 08:16:51;;;;;;;3.33;0.90;;;;;;;3.80;50.91;102327.13;4946953;28;114207;-70
2023/02/26 08:19:19;;;;;;;3.60;1.00;;;;;;;3.83;50.61;102333.25;4973978;28;124508;-70
2023/02/26 08:21:46;;;;;;;5.45;1.13;;;;;;;3.86;51.02;102330.66;4967052;28;124312;-68
2023/02/26 08:24:15;;;;;;;4.30;1.42;;;;;;;3.91;50.59;102330.69;4966101;28;115085;-68
2023/02/26 08:26:42;;;;;;;2.88;1.00;;;;;;;3.96;50.71;102336.84;4962641;28;115410;-68
2023/02/26 08:29:09;;;;;;;3.05;1.23;;;;;;;4.00;50.51;102343.00;4963688;28;123885;-69
2023/02/26 08:31:37;;;;;;;3.97;0.85;;;;;;;4.03;50.66;102351.75;4964151;28;124194;-68
2023/02/26 08:34:04;;;;;;;3.80;0.90;;;;;;;4.07;50.46;102343.03;4946741;28;114459;-68
2023/02/26 08:36:32;;;;;;;3.85;1.00;;;;;;;4.12;50.69;102350.03;4953161;28;113131;-69
2023/02/26 08:38:59;;;;;;;5.97;1.23;;;;;;;4.18;50.46;102360.56;4963076;28;124107;-68
2023/02/26 08:41:29;;;;;;;3.47;1.10;;;;;;;4.21;50.48;102366.69;4950177;28;124632;-68
2023/02/26 08:43:56;;;;;;;2.90;1.00;;;;;;;4.27;50.73;102365.84;4956007;28;114669;-69
2023/02/26 08:46:23;;;;;;;2.05;0.80;;;;;;;4.33;50.45;102365.88;4963590;28;113086;-68
2023/02/26 08:48:52;;;;;;;3.97;1.02;;;;;;;4.38;50.26;102371.19;4943682;28;123840;-67
2023/02/26 08:51:22;;;;;;;3.28;0.88;;;;;;;4.43;50.49;102375.56;4954293;28;122673;-68
2023/02/26 08:53:50;;;;;;;3.20;0.95;;;;;;;4.50;50.37;102379.09;4961887;28;114191;-68
2023/02/26 08:56:18;;;;;;;2.45;0.90;;;;;;;4.57;50.35;102382.63;4953581;28;113103;-68
2023/02/26 08:58:46;;;;;;;2.13;0.80;;;;;;;4.63;50.66;102390.53;4955748;28;124732;-68
2023/02/26 09:01:13;;;;;;;2.70;0.80;;;;;;;4.70;50.03;102391.44;4933009;28;123229;-70
2023/02/26 09:03:40;;;;;;;4.97;0.90;;;;;;;4.75;50.46;102395.84;4962292;28;114824;-68
2023/02/26 09:06:08;;;;;;;4.28;0.80;;;;;;;4.82;50.06;102401.97;4955559;28;113710;-67
2023/02/26 09:08:35;;;;;;;3.00;0.75;;;;;;;4.88;50.26;102408.16;4945302;28;123193;-67
2023/02/26 09:11:04;;;;;;;2.17;0.93;;;;;;;4.97;50.02;102411.66;4957719;28;123931;-68
2023/02/26 09:13:32;;;;;;;4.25;1.00;;;;;;;5.02;50.07;102409.94;4951442;28;115747;-68
2023/02/26 09:15:59;;;;;;;2.40;0.75;;;;;;;5.11;49.78;102423.09;4954325;28;114840;-69
2023/02/26 09:18:27;;;;;;;3.50;0.70;;;;;;;5.18;49.81;102416.09;4949389;28;123352;-70
2023/02/26 09:20:55;;;;;;;2.92;0.70;;;;;;;5.24;49.67;102417.00;4953842;28;126105;-70
2023/02/26 09:23:22;;;;;;;5.22;1.10;;;;;;;5.29;49.23;102421.38;4970265;28;114307;-70
2023/02/26 09:25:54;;;;;;;2.92;0.75;;;;;;;5.33;49.48;102436.28;4969725;28;114129;-69
2023/02/26 09:28:23;;;;;;;3.28;0.90;;;;;;;5.37;49.22;102438.94;4960688;28;124063;-68
2023/02/26 09:30:52;;;;;;;4.13;0.70;;;;;;;5.41;49.17;102434.56;4950045;28;122361;-69
2023/02/26 09:33:21;;;;;;;3.70;0.80;;;;;;;5.46;49.17;102432.81;4951396;28;115012;-69
2023/02/26 09:35:49;;;;;;;3.45;0.88;;;;;;;5.51;48.79;102441.59;4955012;28;112786;-71
2023/02/26 09:38:17;;;;;;;4.32;1.05;;;;;;;5.58;49.22;102438.09;4960406;28;124028;-69
2023/02/26 09:40:52;;;;;;;4.05;0.90;;;;;;;5.63;48.58;102446.88;4977838;28;124091;-69
2023/02/26 09:43:38;;;;;;;3.58;0.80;;;;;;;5.67;48.28;102447.75;4959396;28;113729;-69
2023/02/26 09:46:47;;;;;;;4.55;0.63;;;;;;;5.69;48.13;102450.34;4970707;28;114251;-69
2023/02/26 09:49:46;;;;;;;2.67;0.70;;;;;;;5.69;48.15;102460.88;4953963;28;122932;-75
2023/02/26 09:52:29;;;;;;;4.40;0.98;;;;;;;5.71;48.55;102448.59;4923332;28;124208;-70
2023/02/26 09:55:12;;;;;;;3.50;0.80;;;;;;;5.72;48.29;102466.16;4965443;28;114142;-68
2023/02/26 09:57:42;;;;;;;3.20;0.85;;;;;;;5.77;48.12;102467.03;4967801;28;113998;-69
2023/02/26 10:00:26;;;;;;;1.65;0.60;;;;;;;5.80;48.22;102474.91;4975294;28;123940;-69
2023/02/26 10:03:19;;;;;;;2.63;0.90;;;;;;;5.84;48.29;102471.44;4966981;28;124288;-69
2023/02/26 10:06:27;;;;;;;2.80;0.60;;;;;;;5.90;48.55;102487.22;4947942;28;114278;-69
2023/02/26 10:09:05;;;;;;;4.38;0.80;;;;;;;5.93;48.14;102487.19;4961186;28;114658;-69
2023/02/26 10:12:04;;;;;;;1.90;0.70;;;;;;;5.94;48.38;102483.69;4958388;28;123990;-69
2023/02/26 10:14:34;;;;;;;3.72;1.25;;;;;;;5.95;47.79;102479.31;4941940;28;124279;-69
2023/02/26 10:17:10;;;;;;;1.35;0.60;;;;;;;5.96;47.71;102492.50;4967368;28;114448;-72
2023/02/26 10:19:43;;;;;;;2.67;0.60;;;;;;;5.99;47.83;102487.25;4958387;28;114305;-68
2023/02/26 10:22:31;;;;;;;2.80;0.73;;;;;;;6.08;47.59;102490.75;4966321;28;123927;-73
2023/02/26 10:25:14;;;;;;;2.63;0.80;;;;;;;6.17;47.49;102485.50;4970333;28;124135;-68
2023/02/26 10:28:18;;;;;;;4.45;0.80;;;;;;;6.25;47.94;102483.72;4961940;28;115577;-68
2023/02/26 10:30:55;;;;;;;2.33;0.60;;;;;;;6.37;47.36;102493.38;4958688;28;112844;-68
2023/02/26 10:33:49;;;;;;;3.63;0.68;;;;;;;6.48;46.70;102491.63;4961610;28;123934;-67
2023/02/26 10:36:27;;;;;;;1.35;0.63;;;;;;;6.57;46.21;102501.22;4958751;28;124269;-68
2023/02/26 10:39:26;;;;;;;1.45;0.60;;;;;;;6.58;45.19;102503.88;4962428;28;115069;-68
2023/02/26 10:41:57;;;;;;;2.50;0.50;;;;;;;6.59;45.25;102494.22;4962768;28;113514;-68
2023/02/26 10:44:36;;;;;;;0.60;0.45;;;;;;;6.57;44.59;102495.97;4953390;28;123744;-68
2023/02/26 10:47:23;;;;;;;1.52;0.60;;;;;;;6.54;43.46;102493.38;4962281;28;123345;-67
2023/02/26 10:50:00;;;;;;;2.17;0.80;;;;;;;6.51;43.75;102490.72;4943766;28;113725;-67
2023/02/26 10:52:30;;;;;;;2.60;0.80;;;;;;;6.54;44.23;102496.00;4943716;28;113774;-68
2023/02/26 10:55:22;;;;;;;2.65;0.70;;;;;;;6.59;43.47;102489.84;4956477;28;123894;-71
2023/02/26 10:58:13;;;;;;;2.08;0.65;;;;;;;6.67;43.57;102497.72;4960386;28;124098;-68
2023/02/26 11:00:43;;;;;;;0.82;0.40;;;;;;;6.73;43.39;102495.06;4962240;28;115639;-67
2023/02/26 11:03:18;;;;;;;3.05;0.50;;;;;;;6.77;43.24;102494.19;4941785;28;113966;-70
2023/02/26 11:05:47;;;;;;;;;;;;;;;6.82;42.61;102497.69;4954964;28;124742;-67
2023/02/26 11:08:24;;;;;;;3.15;0.63;;;;;;;6.85;42.10;102501.19;4958606;28;123110;-67
2023/02/26 11:10:53;;;;;;;1.98;0.50;;;;;;;6.87;41.96;102504.69;4962284;28;114408;-71
2023/02/26 11:13:24;;;;;;;3.75;0.88;;;;;;;6.88;41.72;102498.56;4943299;28;113099;-67
2023/02/26 11:15:55;;;;;;;2.67;0.63;;;;;;;6.91;41.92;102511.69;4953754;28;124381;-67
2023/02/26 11:18:27;;;;;;;1.58;0.55;;;;;;;6.93;41.84;102499.38;4962966;28;125296;-68
2023/02/26 11:20:58;;;;;;;3.22;0.85;;;;;;;6.98;41.70;102508.16;4947012;28;113458;-67
2023/02/26 11:23:29;;;;;;;3.30;0.60;;;;;;;7.03;41.85;102503.75;4960805;28;114544;-66
2023/02/26 11:26:04;;;;;;;2.50;0.65;;;;;;;7.09;42.13;102501.09;4958460;28;124242;-66
2023/02/26 11:28:37;;;;;;;1.98;0.70;;;;;;;7.18;42.20;102498.44;4951887;28;124472;-66
2023/02/26 11:31:06;;;;;;;2.95;0.60;;;;;;;7.28;42.05;102490.50;4964379;28;114273;-71
2023/02/26 11:33:38;;;;;;;2.83;0.77;;;;;;;7.39;42.64;102499.22;4953268;28;112091;-66
2023/02/26 11:36:13;;;;;;;1.23;0.55;;;;;;;7.51;42.07;102493.88;4952606;28;125029;-66
2023/02/26 11:38:45;;;;;;;1.77;0.60;;;;;;;7.62;42.25;102500.84;4944259;28;123179;-66
2023/02/26 11:41:15;;;;;;;2.58;0.60;;;;;;;7.68;41.38;102495.53;4965535;28;114299;-66
2023/02/26 11:43:47;;;;;;;1.05;0.47;;;;;;;7.71;41.09;102495.53;4966584;28;114032;-66
2023/02/26 11:46:14;;;;;;;2.13;0.65;;;;;;;7.73;40.15;102499.88;4930025;28;122906;-66
2023/02/26 11:48:46;;;;;;;2.03;0.65;;;;;;;7.74;39.73;102490.22;4993482;22;123920;-66
2023/02/26 11:51:23;;;;;;;1.25;0.60;;;;;;;7.73;40.11;102488.47;4946699;28;115696;-66
2023/02/26 11:53:54;;;;;;;2.33;0.50;;;;;;;7.75;40.11;102489.34;4948085;28;114597;-65